sensor_id;sensor_type;location;lat;lon;timestamp;pressure;altitude;pressure_sealevel;temperature
67829;BMP280;54626;45.436;10.942;2023-09-19T00:00:43;100258.94;;;21.05
67829;BMP280;54626;45.436;10.942;2023-09-19T00:03:10;100261.72;;;20.92
67829;BMP280;54626;45.436;10.942;2023-09-19T00:05:39;100266.56;;;20.78
67829;BMP280;54626;45.436;10.942;2023-09-19T00:08:05;100265.91;;;20.66
67829;BMP280;54626;45.436;10.942;2023-09-19T00:10:33;100267.22;;;20.65
67829;BMP280;54626;45.436;10.942;2023-09-19T00:13:03;100268.94;;;20.70
67829;BMP280;54626;45.436;10.942;2023-09-19T00:15:38;100278.94;;;20.73
67829;BMP280;54626;45.436;10.942;2023-09-19T00:18:06;100281.66;;;20.71
67829;BMP280;54626;45.436;10.942;2023-09-19T00:20:35;100278.09;;;20.70
67829;BMP280;54626;45.436;10.942;2023-09-19T00:23:02;100269.44;;;20.66
67829;BMP280;54626;45.436;10.942;2023-09-19T00:25:30;100266.72;;;20.68
67829;BMP280;54626;45.436;10.942;2023-09-19T00:27:59;100263.81;;;20.66
67829;BMP280;54626;45.436;10.942;2023-09-19T00:30:25;100270.19;;;20.67
67829;BMP280;54626;45.436;10.942;2023-09-19T00:32:52;100262.34;;;20.65
67829;BMP280;54626;45.436;10.942;2023-09-19T00:35:19;100264.31;;;20.63
67829;BMP280;54626;45.436;10.942;2023-09-19T00:37:46;100256.38;;;20.59
67829;BMP280;54626;45.436;10.942;2023-09-19T00:40:13;100255.44;;;20.55
67829;BMP280;54626;45.436;10.942;2023-09-19T00:42:43;100258.47;;;20.59
67829;BMP280;54626;45.436;10.942;2023-09-19T00:45:11;100251.25;;;20.56
67829;BMP280;54626;45.436;10.942;2023-09-19T00:47:49;100246.78;;;20.51
67829;BMP280;54626;45.436;10.942;2023-09-19T00:50:18;100245.09;;;20.46
67829;BMP280;54626;45.436;10.942;2023-09-19T00:52:46;100246.56;;;20.47
67829;BMP280;54626;45.436;10.942;2023-09-19T00:55:14;100240.69;;;20.43
67829;BMP280;54626;45.436;10.942;2023-09-19T00:57:42;100236.06;;;20.36
67829;BMP280;54626;45.436;10.942;2023-09-19T01:00:11;100234.72;;;20.37
67829;BMP280;54626;45.436;10.942;2023-09-19T01:02:42;100229.00;;;20.35
67829;BMP280;54626;45.436;10.942;2023-09-19T01:05:10;100236.06;;;20.36
67829;BMP280;54626;45.436;10.942;2023-09-19T01:07:37;100230.09;;;20.30
67829;BMP280;54626;45.436;10.942;2023-09-19T01:10:17;100226.53;;;20.41
67829;BMP280;54626;45.436;10.942;2023-09-19T01:20:54;100227.13;;;20.40
67829;BMP280;54626;45.436;10.942;2023-09-19T01:23:39;100222.75;;;20.37
67829;BMP280;54626;45.436;10.942;2023-09-19T01:26:18;100232.91;;;20.30
67829;BMP280;54626;45.436;10.942;2023-09-19T01:29:01;100233.75;;;20.33
67829;BMP280;54626;45.436;10.942;2023-09-19T01:31:33;100229.47;;;20.32
67829;BMP280;54626;45.436;10.942;2023-09-19T01:34:03;100237.16;;;20.31
67829;BMP280;54626;45.436;10.942;2023-09-19T01:36:35;100231.44;;;20.29
67829;BMP280;54626;45.436;10.942;2023-09-19T01:39:05;100223.16;;;20.20
67829;BMP280;54626;45.436;10.942;2023-09-19T01:41:47;100224.66;;;20.09
67829;BMP280;54626;45.436;10.942;2023-09-19T01:44:25;100225.63;;;20.02
67829;BMP280;54626;45.436;10.942;2023-09-19T01:46:54;100236.41;;;20.06
67829;BMP280;54626;45.436;10.942;2023-09-19T01:49:35;100230.13;;;20.07
67829;BMP280;54626;45.436;10.942;2023-09-19T01:54:40;100226.13;;;20.10
67829;BMP280;54626;45.436;10.942;2023-09-19T01:57:20;100237.34;;;20.10
67829;BMP280;54626;45.436;10.942;2023-09-19T01:59:50;100238.78;;;20.11
67829;BMP280;54626;45.436;10.942;2023-09-19T02:02:20;100242.97;;;20.10
67829;BMP280;54626;45.436;10.942;2023-09-19T02:04:49;100241.25;;;20.05
67829;BMP280;54626;45.436;10.942;2023-09-19T02:07:17;100234.19;;;20.04
67829;BMP280;54626;45.436;10.942;2023-09-19T02:09:45;100230.78;;;19.95
67829;BMP280;54626;45.436;10.942;2023-09-19T02:12:11;100238.72;;;19.87
67829;BMP280;54626;45.436;10.942;2023-09-19T02:14:38;100234.59;;;19.76
67829;BMP280;54626;45.436;10.942;2023-09-19T02:17:04;100237.19;;;19.72
67829;BMP280;54626;45.436;10.942;2023-09-19T02:19:35;100240.56;;;19.71
67829;BMP280;54626;45.436;10.942;2023-09-19T02:22:05;100247.91;;;19.76
67829;BMP280;54626;45.436;10.942;2023-09-19T02:24:37;100241.19;;;19.81
67829;BMP280;54626;45.436;10.942;2023-09-19T02:27:05;100240.22;;;19.76
67829;BMP280;54626;45.436;10.942;2023-09-19T02:29:31;100238.00;;;19.75
67829;BMP280;54626;45.436;10.942;2023-09-19T02:32:00;100236.66;;;19.76
67829;BMP280;54626;45.436;10.942;2023-09-19T02:34:28;100239.59;;;19.78
67829;BMP280;54626;45.436;10.942;2023-09-19T02:36:55;100236.19;;;19.79
67829;BMP280;54626;45.436;10.942;2023-09-19T02:39:22;100242.28;;;19.76
67829;BMP280;54626;45.436;10.942;2023-09-19T02:41:49;100236.53;;;19.74
67829;BMP280;54626;45.436;10.942;2023-09-19T02:44:16;100233.25;;;19.66
67829;BMP280;54626;45.436;10.942;2023-09-19T02:46:42;100229.63;;;19.63
67829;BMP280;54626;45.436;10.942;2023-09-19T02:49:09;100231.09;;;19.64
67829;BMP280;54626;45.436;10.942;2023-09-19T02:51:36;100228.03;;;19.60
67829;BMP280;54626;45.436;10.942;2023-09-19T02:54:02;100223.38;;;19.53
67829;BMP280;54626;45.436;10.942;2023-09-19T02:56:29;100226.56;;;19.59
67829;BMP280;54626;45.436;10.942;2023-09-19T02:58:57;100237.19;;;19.61
67829;BMP280;54626;45.436;10.942;2023-09-19T03:01:24;100240.34;;;19.55
67829;BMP280;54626;45.436;10.942;2023-09-19T03:03:50;100229.00;;;19.53
67829;BMP280;54626;45.436;10.942;2023-09-19T03:06:17;100234.84;;;19.57
67829;BMP280;54626;45.436;10.942;2023-09-19T03:08:46;100235.09;;;19.61
67829;BMP280;54626;45.436;10.942;2023-09-19T03:11:13;100242.16;;;19.62
67829;BMP280;54626;45.436;10.942;2023-09-19T03:13:41;100234.38;;;19.61
67829;BMP280;54626;45.436;10.942;2023-09-19T03:16:10;100238.38;;;19.58
67829;BMP280;54626;45.436;10.942;2023-09-19T03:18:37;100234.38;;;19.49
67829;BMP280;54626;45.436;10.942;2023-09-19T03:21:03;100239.13;;;19.47
67829;BMP280;54626;45.436;10.942;2023-09-19T03:23:30;100243.63;;;19.40
67829;BMP280;54626;45.436;10.942;2023-09-19T03:25:57;100248.38;;;19.38
67829;BMP280;54626;45.436;10.942;2023-09-19T03:28:25;100238.75;;;19.41
67829;BMP280;54626;45.436;10.942;2023-09-19T03:31:02;100244.25;;;19.39
67829;BMP280;54626;45.436;10.942;2023-09-19T03:33:29;100237.78;;;19.37
67829;BMP280;54626;45.436;10.942;2023-09-19T03:35:58;100235.09;;;19.39
67829;BMP280;54626;45.436;10.942;2023-09-19T03:38:25;100232.88;;;19.37
67829;BMP280;54626;45.436;10.942;2023-09-19T03:40:52;100237.03;;;19.36
67829;BMP280;54626;45.436;10.942;2023-09-19T03:43:18;100232.78;;;19.35
67829;BMP280;54626;45.436;10.942;2023-09-19T03:45:46;100228.59;;;19.36
67829;BMP280;54626;45.436;10.942;2023-09-19T03:48:13;100227.78;;;19.34
67829;BMP280;54626;45.436;10.942;2023-09-19T03:50:39;100220.84;;;19.35
67829;BMP280;54626;45.436;10.942;2023-09-19T03:53:06;100217.28;;;19.34
67829;BMP280;54626;45.436;10.942;2023-09-19T03:55:35;100223.25;;;19.40
67829;BMP280;54626;45.436;10.942;2023-09-19T03:58:02;100210.94;;;19.45
67829;BMP280;54626;45.436;10.942;2023-09-19T04:00:30;100214.47;;;19.45
67829;BMP280;54626;45.436;10.942;2023-09-19T04:02:56;100214.63;;;19.47
67829;BMP280;54626;45.436;10.942;2023-09-19T04:05:23;100220.34;;;19.49
67829;BMP280;54626;45.436;10.942;2023-09-19T04:07:50;100214.09;;;19.51
67829;BMP280;54626;45.436;10.942;2023-09-19T04:10:17;100216.69;;;19.47
67829;BMP280;54626;45.436;10.942;2023-09-19T04:12:53;100205.44;;;19.47
67829;BMP280;54626;45.436;10.942;2023-09-19T04:15:21;100221.44;;;19.44
67829;BMP280;54626;45.436;10.942;2023-09-19T04:17:53;100216.28;;;19.41
67829;BMP280;54626;45.436;10.942;2023-09-19T04:20:20;100222.78;;;19.43
67829;BMP280;54626;45.436;10.942;2023-09-19T04:22:49;100211.69;;;19.45
67829;BMP280;54626;45.436;10.942;2023-09-19T04:25:16;100206.53;;;19.42
67829;BMP280;54626;45.436;10.942;2023-09-19T04:27:43;100217.38;;;19.36
67829;BMP280;54626;45.436;10.942;2023-09-19T04:30:10;100215.94;;;19.35
67829;BMP280;54626;45.436;10.942;2023-09-19T04:32:38;100215.22;;;19.35
67829;BMP280;54626;45.436;10.942;2023-09-19T04:35:09;100213.63;;;19.43
67829;BMP280;54626;45.436;10.942;2023-09-19T04:37:40;100213.00;;;19.44
67829;BMP280;54626;45.436;10.942;2023-09-19T04:40:09;100209.72;;;19.37
67829;BMP280;54626;45.436;10.942;2023-09-19T04:42:42;100210.69;;;19.41
67829;BMP280;54626;45.436;10.942;2023-09-19T04:45:09;100217.38;;;19.36
67829;BMP280;54626;45.436;10.942;2023-09-19T04:47:37;100217.97;;;19.23
67829;BMP280;54626;45.436;10.942;2023-09-19T04:50:07;100214.09;;;19.28
67829;BMP280;54626;45.436;10.942;2023-09-19T04:52:34;100214.09;;;19.28
67829;BMP280;54626;45.436;10.942;2023-09-19T04:55:01;100222.75;;;19.32
67829;BMP280;54626;45.436;10.942;2023-09-19T04:57:28;100234.22;;;19.36
67829;BMP280;54626;45.436;10.942;2023-09-19T04:59:54;100228.16;;;19.40
67829;BMP280;54626;45.436;10.942;2023-09-19T05:02:21;100234.09;;;19.34
67829;BMP280;54626;45.436;10.942;2023-09-19T05:04:47;100239.59;;;19.32
67829;BMP280;54626;45.436;10.942;2023-09-19T05:07:14;100239.47;;;19.30
67829;BMP280;54626;45.436;10.942;2023-09-19T05:09:50;100242.28;;;19.30
67829;BMP280;54626;45.436;10.942;2023-09-19T05:12:16;100247.63;;;19.15
67829;BMP280;54626;45.436;10.942;2023-09-19T05:14:45;100246.63;;;19.10
67829;BMP280;54626;45.436;10.942;2023-09-19T05:17:13;100262.59;;;19.08
67829;BMP280;54626;45.436;10.942;2023-09-19T05:19:40;100255.66;;;19.09
67829;BMP280;54626;45.436;10.942;2023-09-19T05:22:06;100262.84;;;19.12
67829;BMP280;54626;45.436;10.942;2023-09-19T05:24:33;100269.28;;;19.14
67829;BMP280;54626;45.436;10.942;2023-09-19T05:27:01;100272.84;;;19.15
67829;BMP280;54626;45.436;10.942;2023-09-19T05:29:27;100273.00;;;19.17
67829;BMP280;54626;45.436;10.942;2023-09-19T05:31:55;100273.81;;;19.19
67829;BMP280;54626;45.436;10.942;2023-09-19T05:34:21;100275.69;;;19.26
67829;BMP280;54626;45.436;10.942;2023-09-19T05:36:48;100272.97;;;19.28
67829;BMP280;54626;45.436;10.942;2023-09-19T05:39:15;100287.16;;;19.30
67829;BMP280;54626;45.436;10.942;2023-09-19T05:41:42;100291.91;;;19.39
67829;BMP280;54626;45.436;10.942;2023-09-19T05:44:09;100290.81;;;19.44
67829;BMP280;54626;45.436;10.942;2023-09-19T05:46:38;100298.88;;;19.49
67829;BMP280;54626;45.436;10.942;2023-09-19T05:49:07;100298.63;;;19.57
67829;BMP280;54626;45.436;10.942;2023-09-19T05:51:35;100304.16;;;19.66
67829;BMP280;54626;45.436;10.942;2023-09-19T05:54:02;100307.94;;;19.71
67829;BMP280;54626;45.436;10.942;2023-09-19T05:56:28;100314.66;;;19.77
67829;BMP280;54626;45.436;10.942;2023-09-19T05:58:55;100312.94;;;19.84
67829;BMP280;54626;45.436;10.942;2023-09-19T06:01:23;100316.00;;;19.88
67829;BMP280;54626;45.436;10.942;2023-09-19T06:03:49;100322.72;;;19.94
67829;BMP280;54626;45.436;10.942;2023-09-19T06:06:17;100314.16;;;20.03
67829;BMP280;54626;45.436;10.942;2023-09-19T06:08:43;100318.78;;;20.10
67829;BMP280;54626;45.436;10.942;2023-09-19T06:11:10;100317.44;;;20.23
67829;BMP280;54626;45.436;10.942;2023-09-19T06:13:37;100321.56;;;20.33
67829;BMP280;54626;45.436;10.942;2023-09-19T06:16:06;100318.00;;;20.44
67829;BMP280;54626;45.436;10.942;2023-09-19T06:18:32;100315.66;;;20.52
67829;BMP280;54626;45.436;10.942;2023-09-19T06:21:00;100316.97;;;20.62
67829;BMP280;54626;45.436;10.942;2023-09-19T06:23:26;100321.31;;;20.77
67829;BMP280;54626;45.436;10.942;2023-09-19T06:25:55;100322.13;;;20.91
67829;BMP280;54626;45.436;10.942;2023-09-19T06:28:21;100328.09;;;20.97
67829;BMP280;54626;45.436;10.942;2023-09-19T06:30:51;100333.31;;;21.02
67829;BMP280;54626;45.436;10.942;2023-09-19T06:33:18;100338.91;;;21.13
67829;BMP280;54626;45.436;10.942;2023-09-19T06:35:47;100330.78;;;21.19
67829;BMP280;54626;45.436;10.942;2023-09-19T06:38:14;100333.94;;;21.25
67829;BMP280;54626;45.436;10.942;2023-09-19T06:40:42;100337.19;;;21.33
67829;BMP280;54626;45.436;10.942;2023-09-19T06:43:10;100335.53;;;21.42
67829;BMP280;54626;45.436;10.942;2023-09-19T06:45:37;100337.63;;;21.55
67829;BMP280;54626;45.436;10.942;2023-09-19T06:48:04;100338.72;;;21.61
67829;BMP280;54626;45.436;10.942;2023-09-19T06:50:32;100339.03;;;21.67
67829;BMP280;54626;45.436;10.942;2023-09-19T06:52:59;100335.50;;;21.80
67829;BMP280;54626;45.436;10.942;2023-09-19T06:55:27;100335.41;;;21.91
67829;BMP280;54626;45.436;10.942;2023-09-19T06:57:55;100334.25;;;22.10
67829;BMP280;54626;45.436;10.942;2023-09-19T07:00:22;100331.53;;;22.25
67829;BMP280;54626;45.436;10.942;2023-09-19T07:05:31;100335.78;;;22.39
67829;BMP280;54626;45.436;10.942;2023-09-19T07:07:59;100338.66;;;22.55
67829;BMP280;54626;45.436;10.942;2023-09-19T07:10:26;100340.09;;;22.69
67829;BMP280;54626;45.436;10.942;2023-09-19T07:13:04;100341.00;;;22.74
67829;BMP280;54626;45.436;10.942;2023-09-19T07:15:33;100343.69;;;22.85
67829;BMP280;54626;45.436;10.942;2023-09-19T07:18:06;100349.91;;;22.97
67829;BMP280;54626;45.436;10.942;2023-09-19T07:20:33;100351.38;;;22.98
67829;BMP280;54626;45.436;10.942;2023-09-19T07:23:01;100351.41;;;23.13
67829;BMP280;54626;45.436;10.942;2023-09-19T07:25:28;100354.88;;;23.12
67829;BMP280;54626;45.436;10.942;2023-09-19T07:27:56;100354.91;;;23.27
67829;BMP280;54626;45.436;10.942;2023-09-19T07:30:23;100351.47;;;23.44
67829;BMP280;54626;45.436;10.942;2023-09-19T07:32:49;100356.28;;;23.57
67829;BMP280;54626;45.436;10.942;2023-09-19T07:35:18;100362.31;;;23.65
67829;BMP280;54626;45.436;10.942;2023-09-19T07:37:47;100352.50;;;23.83
67829;BMP280;54626;45.436;10.942;2023-09-19T07:40:18;100362.81;;;23.92
67829;BMP280;54626;45.436;10.942;2023-09-19T07:42:45;100360.25;;;23.98
67829;BMP280;54626;45.436;10.942;2023-09-19T07:45:15;100364.00;;;24.02
67829;BMP280;54626;45.436;10.942;2023-09-19T07:47:47;100364.69;;;24.18
67829;BMP280;54626;45.436;10.942;2023-09-19T07:50:16;100372.84;;;24.28
67829;BMP280;54626;45.436;10.942;2023-09-19T07:52:48;100371.81;;;24.36
67829;BMP280;54626;45.436;10.942;2023-09-19T07:55:17;100372.06;;;24.42
67829;BMP280;54626;45.436;10.942;2023-09-19T07:57:46;100378.38;;;24.58
67829;BMP280;54626;45.436;10.942;2023-09-19T08:00:13;100381.16;;;24.56
67829;BMP280;54626;45.436;10.942;2023-09-19T08:02:40;100385.31;;;24.71
67829;BMP280;54626;45.436;10.942;2023-09-19T08:05:09;100392.69;;;24.78
67829;BMP280;54626;45.436;10.942;2023-09-19T08:07:37;100387.09;;;24.80
67829;BMP280;54626;45.436;10.942;2023-09-19T08:10:05;100383.19;;;24.88
67829;BMP280;54626;45.436;10.942;2023-09-19T08:12:34;100383.59;;;24.98
67829;BMP280;54626;45.436;10.942;2023-09-19T08:15:03;100391.44;;;25.00
67829;BMP280;54626;45.436;10.942;2023-09-19T08:17:34;100384.41;;;25.01
67829;BMP280;54626;45.436;10.942;2023-09-19T08:20:04;100383.00;;;25.19
67829;BMP280;54626;45.436;10.942;2023-09-19T08:22:31;100391.00;;;25.25
67829;BMP280;54626;45.436;10.942;2023-09-19T08:25:01;100392.56;;;25.10
67829;BMP280;54626;45.436;10.942;2023-09-19T08:27:28;100403.38;;;25.16
67829;BMP280;54626;45.436;10.942;2023-09-19T08:29:54;100400.72;;;25.20
67829;BMP280;54626;45.436;10.942;2023-09-19T08:32:21;100401.69;;;25.09
67829;BMP280;54626;45.436;10.942;2023-09-19T08:34:50;100403.91;;;25.10
67829;BMP280;54626;45.436;10.942;2023-09-19T08:37:17;100406.63;;;25.08
67829;BMP280;54626;45.436;10.942;2023-09-19T08:39:45;100401.78;;;25.11
67829;BMP280;54626;45.436;10.942;2023-09-19T08:42:12;100407.16;;;25.39
67829;BMP280;54626;45.436;10.942;2023-09-19T08:44:40;100405.63;;;25.37
67829;BMP280;54626;45.436;10.942;2023-09-19T08:47:10;100412.66;;;25.53
67829;BMP280;54626;45.436;10.942;2023-09-19T08:49:51;100416.09;;;25.69
67829;BMP280;54626;45.436;10.942;2023-09-19T08:52:32;100416.50;;;25.61
67829;BMP280;54626;45.436;10.942;2023-09-19T08:55:07;100416.59;;;25.63
67829;BMP280;54626;45.436;10.942;2023-09-19T08:57:38;100418.25;;;25.70
67829;BMP280;54626;45.436;10.942;2023-09-19T09:00:08;100420.06;;;25.62
67829;BMP280;54626;45.436;10.942;2023-09-19T09:02:42;100424.03;;;25.72
67829;BMP280;54626;45.436;10.942;2023-09-19T09:05:10;100414.13;;;25.92
67829;BMP280;54626;45.436;10.942;2023-09-19T09:07:42;100414.41;;;26.20
67829;BMP280;54626;45.436;10.942;2023-09-19T09:10:10;100418.97;;;26.29
67829;BMP280;54626;45.436;10.942;2023-09-19T09:12:37;100424.06;;;26.32
67829;BMP280;54626;45.436;10.942;2023-09-19T09:15:07;100424.06;;;26.32
67829;BMP280;54626;45.436;10.942;2023-09-19T09:17:35;100426.38;;;26.38
67829;BMP280;54626;45.436;10.942;2023-09-19T09:20:02;100420.50;;;26.32
67829;BMP280;54626;45.436;10.942;2023-09-19T09:22:29;100432.66;;;26.55
67829;BMP280;54626;45.436;10.942;2023-09-19T09:24:57;100427.56;;;26.52
67829;BMP280;54626;45.436;10.942;2023-09-19T09:27:31;100425.66;;;26.58
67829;BMP280;54626;45.436;10.942;2023-09-19T09:29:58;100430.00;;;26.61
67829;BMP280;54626;45.436;10.942;2023-09-19T09:32:29;100431.75;;;26.70
67829;BMP280;54626;45.436;10.942;2023-09-19T09:34:59;100432.19;;;26.84
67829;BMP280;54626;45.436;10.942;2023-09-19T09:37:28;100434.19;;;27.01
67829;BMP280;54626;45.436;10.942;2023-09-19T09:39:59;100429.28;;;27.03
67829;BMP280;54626;45.436;10.942;2023-09-19T09:42:44;100436.66;;;27.12
67829;BMP280;54626;45.436;10.942;2023-09-19T09:45:22;100433.91;;;26.93
67829;BMP280;54626;45.436;10.942;2023-09-19T09:48:04;100432.53;;;27.17
67829;BMP280;54626;45.436;10.942;2023-09-19T09:50:48;100433.22;;;27.39
67829;BMP280;54626;45.436;10.942;2023-09-19T09:53:25;100428.13;;;27.35
67829;BMP280;54626;45.436;10.942;2023-09-19T09:56:04;100421.19;;;27.40
67829;BMP280;54626;45.436;10.942;2023-09-19T09:58:36;100422.34;;;27.32
67829;BMP280;54626;45.436;10.942;2023-09-19T10:01:04;100420.69;;;27.48
67829;BMP280;54626;45.436;10.942;2023-09-19T10:03:43;100421.66;;;27.82
67829;BMP280;54626;45.436;10.942;2023-09-19T10:06:14;100418.19;;;27.60
67829;BMP280;54626;45.436;10.942;2023-09-19T10:09:09;100418.59;;;27.48
67829;BMP280;54626;45.436;10.942;2023-09-19T10:11:44;100414.94;;;27.69
67829;BMP280;54626;45.436;10.942;2023-09-19T10:14:12;100418.53;;;27.72
67829;BMP280;54626;45.436;10.942;2023-09-19T10:16:45;100414.66;;;27.84
67829;BMP280;54626;45.436;10.942;2023-09-19T10:19:22;100420.22;;;27.81
67829;BMP280;54626;45.436;10.942;2023-09-19T10:21:54;100423.59;;;27.73
67829;BMP280;54626;45.436;10.942;2023-09-19T10:24:21;100426.84;;;27.64
67829;BMP280;54626;45.436;10.942;2023-09-19T10:26:49;100423.69;;;27.77
67829;BMP280;54626;45.436;10.942;2023-09-19T10:29:17;100427.41;;;27.83
67829;BMP280;54626;45.436;10.942;2023-09-19T10:31:47;100431.53;;;27.79
67829;BMP280;54626;45.436;10.942;2023-09-19T10:34:14;100429.53;;;27.83
67829;BMP280;54626;45.436;10.942;2023-09-19T10:36:44;100431.03;;;27.86
67829;BMP280;54626;45.436;10.942;2023-09-19T10:39:15;100427.06;;;28.22
67829;BMP280;54626;45.436;10.942;2023-09-19T10:41:52;100430.69;;;28.25
67829;BMP280;54626;45.436;10.942;2023-09-19T10:44:29;100425.69;;;28.23
67829;BMP280;54626;45.436;10.942;2023-09-19T10:46:59;100421.81;;;28.13
67829;BMP280;54626;45.436;10.942;2023-09-19T10:49:26;100427.94;;;28.29
67829;BMP280;54626;45.436;10.942;2023-09-19T10:51:54;100421.81;;;28.13
67829;BMP280;54626;45.436;10.942;2023-09-19T10:54:29;100415.41;;;28.39
67829;BMP280;54626;45.436;10.942;2023-09-19T10:56:57;100413.47;;;28.46
67829;BMP280;54626;45.436;10.942;2023-09-19T10:59:25;100413.38;;;28.73
67829;BMP280;54626;45.436;10.942;2023-09-19T11:01:54;100415.31;;;28.94
67829;BMP280;54626;45.436;10.942;2023-09-19T11:04:27;100416.75;;;28.95
67829;BMP280;54626;45.436;10.942;2023-09-19T11:07:12;100407.81;;;29.08
67829;BMP280;54626;45.436;10.942;2023-09-19T11:09:50;100418.34;;;29.02
67829;BMP280;54626;45.436;10.942;2023-09-19T11:15:02;100406.84;;;28.98
67829;BMP280;54626;45.436;10.942;2023-09-19T11:17:36;100410.66;;;29.08
67829;BMP280;54626;45.436;10.942;2023-09-19T11:30:43;100404.41;;;29.49
67829;BMP280;54626;45.436;10.942;2023-09-19T11:36:11;100406.81;;;29.62
67829;BMP280;54626;45.436;10.942;2023-09-19T11:46:33;100405.19;;;29.53
67829;BMP280;54626;45.436;10.942;2023-09-19T11:49:07;100396.81;;;29.63
67829;BMP280;54626;45.436;10.942;2023-09-19T11:51:40;100393.44;;;29.70
67829;BMP280;54626;45.436;10.942;2023-09-19T11:54:13;100403.25;;;29.62
67829;BMP280;54626;45.436;10.942;2023-09-19T11:56:45;100402.50;;;29.61
67829;BMP280;54626;45.436;10.942;2023-09-19T11:59:23;100400.13;;;29.50
67829;BMP280;54626;45.436;10.942;2023-09-19T12:01:54;100388.34;;;29.67
67829;BMP280;54626;45.436;10.942;2023-09-19T12:04:41;100388.63;;;29.81
67829;BMP280;54626;45.436;10.942;2023-09-19T12:07:11;100383.53;;;30.14
67829;BMP280;54626;45.436;10.942;2023-09-19T12:09:47;100379.28;;;30.60
67829;BMP280;54626;45.436;10.942;2023-09-19T12:12:25;100378.66;;;30.66
67829;BMP280;54626;45.436;10.942;2023-09-19T12:14:56;100377.84;;;30.61
67829;BMP280;54626;45.436;10.942;2023-09-19T12:17:40;100371.78;;;30.85
67829;BMP280;54626;45.436;10.942;2023-09-19T12:20:11;100371.06;;;30.86
67829;BMP280;54626;45.436;10.942;2023-09-19T12:22:41;100370.41;;;30.43
67829;BMP280;54626;45.436;10.942;2023-09-19T12:25:10;100366.63;;;30.75
67829;BMP280;54626;45.436;10.942;2023-09-19T12:27:48;100368.22;;;30.88
67829;BMP280;54626;45.436;10.942;2023-09-19T12:30:27;100368.13;;;30.80
67829;BMP280;54626;45.436;10.942;2023-09-19T12:32:55;100363.31;;;30.93
67829;BMP280;54626;45.436;10.942;2023-09-19T12:35:28;100376.78;;;30.86
67829;BMP280;54626;45.436;10.942;2023-09-19T12:37:56;100363.56;;;31.12
67829;BMP280;54626;45.436;10.942;2023-09-19T12:40:24;100364.91;;;31.05
67829;BMP280;54626;45.436;10.942;2023-09-19T12:42:56;100364.63;;;30.86
67829;BMP280;54626;45.436;10.942;2023-09-19T12:45:27;100363.63;;;30.65
67829;BMP280;54626;45.436;10.942;2023-09-19T12:48:23;100362.56;;;30.90
67829;BMP280;54626;45.436;10.942;2023-09-19T12:53:34;100375.91;;;31.31
67829;BMP280;54626;45.436;10.942;2023-09-19T12:56:04;100370.66;;;31.07
67829;BMP280;54626;45.436;10.942;2023-09-19T12:58:50;100368.41;;;31.00
67829;BMP280;54626;45.436;10.942;2023-09-19T13:01:19;100372.63;;;30.95
67829;BMP280;54626;45.436;10.942;2023-09-19T13:04:10;100361.59;;;31.27
67829;BMP280;54626;45.436;10.942;2023-09-19T13:06:38;100366.19;;;30.95
67829;BMP280;54626;45.436;10.942;2023-09-19T13:09:10;100359.94;;;31.10
67829;BMP280;54626;45.436;10.942;2023-09-19T13:11:38;100356.50;;;31.19
67829;BMP280;54626;45.436;10.942;2023-09-19T13:14:28;100356.47;;;30.64
67829;BMP280;54626;45.436;10.942;2023-09-19T13:17:01;100351.75;;;30.34
67829;BMP280;54626;45.436;10.942;2023-09-19T13:19:42;100347.72;;;30.08
67829;BMP280;54626;45.436;10.942;2023-09-19T13:22:52;100353.81;;;29.88
67829;BMP280;54626;45.436;10.942;2023-09-19T13:25:23;100351.91;;;29.62
67829;BMP280;54626;45.436;10.942;2023-09-19T13:27:51;100351.50;;;29.79
67829;BMP280;54626;45.436;10.942;2023-09-19T13:30:24;100348.13;;;30.33
67829;BMP280;54626;45.436;10.942;2023-09-19T13:33:03;100352.00;;;31.03
67829;BMP280;54626;45.436;10.942;2023-09-19T13:35:32;100350.97;;;31.35
67829;BMP280;54626;45.436;10.942;2023-09-19T13:37:59;100346.94;;;31.60
67829;BMP280;54626;45.436;10.942;2023-09-19T13:40:26;100350.25;;;31.39
67829;BMP280;54626;45.436;10.942;2023-09-19T13:42:57;100354.31;;;31.16
67829;BMP280;54626;45.436;10.942;2023-09-19T13:45:23;100342.94;;;30.67
67829;BMP280;54626;45.436;10.942;2023-09-19T13:47:56;100348.13;;;30.31
67829;BMP280;54626;45.436;10.942;2023-09-19T13:50:24;100347.09;;;30.13
67829;BMP280;54626;45.436;10.942;2023-09-19T13:52:51;100344.41;;;29.82
67829;BMP280;54626;45.436;10.942;2023-09-19T13:55:20;100346.28;;;30.07
67829;BMP280;54626;45.436;10.942;2023-09-19T13:57:47;100349.03;;;30.44
67829;BMP280;54626;45.436;10.942;2023-09-19T14:00:19;100343.22;;;30.87
67829;BMP280;54626;45.436;10.942;2023-09-19T14:02:45;100342.50;;;31.47
67829;BMP280;54626;45.436;10.942;2023-09-19T14:05:13;100348.63;;;31.87
67829;BMP280;54626;45.436;10.942;2023-09-19T14:07:42;100348.59;;;31.85
67829;BMP280;54626;45.436;10.942;2023-09-19T14:10:11;100345.16;;;32.02
67829;BMP280;54626;45.436;10.942;2023-09-19T14:12:38;100350.91;;;32.06
67829;BMP280;54626;45.436;10.942;2023-09-19T14:15:08;100344.50;;;32.11
67829;BMP280;54626;45.436;10.942;2023-09-19T14:17:34;100353.44;;;32.59
67829;BMP280;54626;45.436;10.942;2023-09-19T14:20:01;100347.78;;;32.73
67829;BMP280;54626;45.436;10.942;2023-09-19T14:22:28;100340.34;;;32.28
67829;BMP280;54626;45.436;10.942;2023-09-19T14:24:54;100345.53;;;32.55
67829;BMP280;54626;45.436;10.942;2023-09-19T14:27:21;100346.97;;;32.58
67829;BMP280;54626;45.436;10.942;2023-09-19T14:29:47;100346.31;;;32.64
67829;BMP280;54626;45.436;10.942;2023-09-19T14:32:14;100345.53;;;32.59
67829;BMP280;54626;45.436;10.942;2023-09-19T14:34:40;100345.56;;;32.61
67829;BMP280;54626;45.436;10.942;2023-09-19T14:37:09;100351.19;;;32.45
67829;BMP280;54626;45.436;10.942;2023-09-19T14:39:37;100349.84;;;32.56